createdAt,value
2022-12-27T08:03:00.896Z,1020.44
2022-12-27T08:04:16.741Z,1020.44
2022-12-27T08:04:55.497Z,1020.51
2022-12-27T08:05:36.985Z,1020.50
2022-12-27T08:06:36.965Z,1020.53
2022-12-27T08:07:37.975Z,1020.56
2022-12-27T08:08:36.948Z,1020.60
2022-12-27T08:09:36.964Z,1020.59
2022-12-27T08:10:36.922Z,1020.62
2022-12-27T08:11:36.909Z,1020.58
2022-12-27T08:12:36.913Z,1020.60
2022-12-27T08:13:36.919Z,1020.60
2022-12-27T08:14:36.894Z,1020.58
2022-12-27T08:15:36.906Z,1020.49
2022-12-27T08:16:36.889Z,1020.48
2022-12-27T08:17:36.850Z,1020.52
2022-12-27T08:18:36.866Z,1020.50
2022-12-27T08:19:36.887Z,1020.51
2022-12-27T08:20:36.819Z,1020.50
2022-12-27T08:21:36.828Z,1020.48
2022-12-27T08:22:36.795Z,1020.47
2022-12-27T08:23:36.785Z,1020.44
2022-12-27T08:24:36.769Z,1020.47
2022-12-27T08:25:36.766Z,1020.49
2022-12-27T08:26:36.772Z,1020.50
2022-12-27T08:27:36.736Z,1020.52
2022-12-27T08:28:36.727Z,1020.47
2022-12-27T08:29:36.704Z,1020.45
2022-12-27T08:30:36.839Z,1020.45
2022-12-27T08:31:36.705Z,1020.45
2022-12-27T08:32:36.679Z,1020.42
2022-12-27T08:33:36.673Z,1020.45
2022-12-27T08:34:36.674Z,1020.48
2022-12-27T08:35:53.558Z,1020.46
2022-12-27T08:36:54.737Z,1020.48
2022-12-27T08:37:37.632Z,1020.51
2022-12-27T08:38:36.630Z,1020.50
2022-12-27T08:39:36.607Z,1020.46
2022-12-27T08:40:36.604Z,1020.50
2022-12-27T08:41:36.585Z,1020.47
2022-12-27T08:42:36.579Z,1020.49
2022-12-27T08:43:36.547Z,1020.43
2022-12-27T08:44:36.556Z,1020.42
2022-12-27T08:45:36.525Z,1020.43
2022-12-27T08:46:44.473Z,1020.42
2022-12-27T08:47:36.509Z,1020.43
2022-12-27T08:48:36.537Z,1020.45
2022-12-27T08:49:36.508Z,1020.47
2022-12-27T08:50:36.511Z,1020.48
2022-12-27T08:51:41.199Z,1020.47
2022-12-27T08:52:37.457Z,1020.47
2022-12-27T08:53:36.480Z,1020.51
2022-12-27T08:54:36.444Z,1020.45
2022-12-27T08:55:36.421Z,1020.47
2022-12-27T08:56:36.407Z,1020.45
2022-12-27T08:57:36.410Z,1020.50
2022-12-27T08:58:36.399Z,1020.46
2022-12-27T08:59:36.397Z,1020.48
2022-12-27T09:00:36.377Z,1020.53
2022-12-27T09:01:36.536Z,1020.49
2022-12-27T09:02:37.438Z,1020.49
2022-12-27T09:03:36.387Z,1020.51
2022-12-27T09:04:36.335Z,1020.51
2022-12-27T09:05:41.486Z,1020.52
2022-12-27T09:06:37.318Z,1020.57
2022-12-27T09:07:36.279Z,1020.60
2022-12-27T09:08:36.288Z,1020.61
2022-12-27T09:09:36.275Z,1020.61
2022-12-27T09:10:36.354Z,1020.63
2022-12-27T09:11:36.240Z,1020.63
2022-12-27T09:12:36.229Z,1020.65
2022-12-27T09:13:36.227Z,1020.62
2022-12-27T09:14:36.218Z,1020.66
2022-12-27T09:15:36.229Z,1020.68
2022-12-27T09:16:37.197Z,1020.64
2022-12-27T09:17:36.181Z,1020.65
2022-12-27T09:18:36.178Z,1020.68
2022-12-27T09:19:36.160Z,1020.70
2022-12-27T09:20:37.178Z,1020.72
2022-12-27T09:21:36.123Z,1020.73
2022-12-27T09:22:36.135Z,1020.73
2022-12-27T09:23:36.117Z,1020.75
2022-12-27T09:24:36.096Z,1020.75
2022-12-27T09:25:36.207Z,1020.72
2022-12-27T09:26:36.089Z,1020.75
2022-12-27T09:27:36.070Z,1020.74
2022-12-27T09:28:37.061Z,1020.68
2022-12-27T09:29:36.036Z,1020.72
2022-12-27T09:30:37.039Z,1020.69
2022-12-27T09:31:36.058Z,1020.71
2022-12-27T09:32:36.005Z,1020.71
2022-12-27T09:33:36.004Z,1020.72
2022-12-27T09:34:36.023Z,1020.72
2022-12-27T09:35:38.653Z,1020.73
2022-12-27T09:36:35.996Z,1020.74
2022-12-27T09:37:36.950Z,1020.76
2022-12-27T09:38:35.958Z,1020.76
2022-12-27T09:39:35.942Z,1020.76
2022-12-27T09:40:35.987Z,1020.80
2022-12-27T09:43:06.185Z,1020.83
2022-12-27T09:43:36.891Z,1020.78
2022-12-27T09:44:35.902Z,1020.77
2022-12-27T09:45:35.873Z,1020.77
2022-12-27T09:46:35.878Z,1020.76
2022-12-27T09:47:35.863Z,1020.79
2022-12-27T09:48:35.835Z,1020.77
2022-12-27T09:49:35.881Z,1020.79
2022-12-27T09:50:35.814Z,1020.78
2022-12-27T09:51:35.791Z,1020.71
2022-12-27T09:52:35.792Z,1020.71
2022-12-27T09:53:35.791Z,1020.71
2022-12-27T09:54:35.781Z,1020.63
2022-12-27T09:55:35.755Z,1020.62
2022-12-27T09:57:09.702Z,1020.63
2022-12-27T09:57:36.737Z,1020.64
2022-12-27T09:58:35.743Z,1020.64
2022-12-27T09:59:35.712Z,1020.63
2022-12-27T10:00:37.210Z,1020.65
2022-12-27T10:01:35.792Z,1020.66
2022-12-27T10:02:36.784Z,1020.66
2022-12-27T10:03:35.681Z,1020.67
2022-12-27T10:05:09.946Z,1020.67
2022-12-27T10:05:36.652Z,1020.71
2022-12-27T10:06:35.651Z,1020.64
2022-12-27T10:07:35.620Z,1020.60
2022-12-27T10:08:35.625Z,1020.54
2022-12-27T10:09:35.587Z,1020.56
2022-12-27T10:10:35.619Z,1020.52
2022-12-27T10:11:35.573Z,1020.53
2022-12-27T10:12:35.562Z,1020.54
2022-12-27T10:13:35.612Z,1020.55
2022-12-27T10:14:35.571Z,1020.54
2022-12-27T10:15:35.587Z,1020.58
2022-12-27T10:16:35.577Z,1020.57
2022-12-27T10:17:36.507Z,1020.57
2022-12-27T10:18:35.494Z,1020.53
2022-12-27T10:19:35.514Z,1020.51
2022-12-27T10:20:35.496Z,1020.49
2022-12-27T10:21:35.465Z,1020.42
2022-12-27T10:22:35.454Z,1020.47
2022-12-27T10:23:35.431Z,1020.52
2022-12-27T10:24:35.432Z,1020.49
2022-12-27T10:25:35.419Z,1020.49
2022-12-27T10:26:35.434Z,1020.54
2022-12-27T10:27:53.416Z,1020.48
2022-12-27T10:28:35.394Z,1020.49
2022-12-27T10:29:35.376Z,1020.40
2022-12-27T10:30:35.356Z,1020.40
2022-12-27T10:31:35.425Z,1020.44
2022-12-27T10:32:35.331Z,1020.42
2022-12-27T10:33:35.349Z,1020.40
2022-12-27T10:34:35.331Z,1020.48
2022-12-27T10:35:35.295Z,1020.48
2022-12-27T10:36:35.286Z,1020.48
2022-12-27T10:37:35.269Z,1020.48
2022-12-27T10:38:35.286Z,1020.44
2022-12-27T10:39:35.288Z,1020.47
2022-12-27T10:40:35.240Z,1020.52
2022-12-27T10:41:35.238Z,1020.48
2022-12-27T10:42:35.242Z,1020.51
2022-12-27T10:43:35.201Z,1020.52
2022-12-27T10:44:35.211Z,1020.54
2022-12-27T10:45:35.202Z,1020.51
2022-12-27T10:46:35.240Z,1020.55
2022-12-27T10:47:35.159Z,1020.55
2022-12-27T10:49:10.885Z,1020.44
2022-12-27T10:49:36.166Z,1020.47
2022-12-27T10:50:35.131Z,1020.47
2022-12-27T10:51:35.129Z,1020.49
2022-12-27T10:52:35.107Z,1020.45
2022-12-27T10:53:35.112Z,1020.38
2022-12-27T10:54:35.111Z,1020.40
2022-12-27T10:55:35.072Z,1020.44
2022-12-27T10:56:35.062Z,1020.42
2022-12-27T10:57:35.062Z,1020.45
2022-12-27T10:58:35.071Z,1020.38
2022-12-27T10:59:35.054Z,1020.32
2022-12-27T11:00:35.060Z,1020.36
2022-12-27T11:01:35.179Z,1020.36
2022-12-27T11:02:35.066Z,1020.39
2022-12-27T11:03:34.987Z,1020.37
2022-12-27T11:04:34.979Z,1020.41
2022-12-27T11:05:34.964Z,1020.43
2022-12-27T11:06:34.952Z,1020.41
2022-12-27T11:07:34.932Z,1020.43
2022-12-27T11:08:34.927Z,1020.42
2022-12-27T11:09:34.927Z,1020.36
2022-12-27T11:10:34.922Z,1020.42
2022-12-27T11:11:34.909Z,1020.39
2022-12-27T11:12:34.879Z,1020.34
2022-12-27T11:13:34.875Z,1020.34
2022-12-27T11:14:34.889Z,1020.33
2022-12-27T11:15:34.867Z,1020.36
2022-12-27T11:16:34.973Z,1020.37
2022-12-27T11:17:34.841Z,1020.39
2022-12-27T11:18:34.826Z,1020.38
2022-12-27T11:19:34.816Z,1020.39
2022-12-27T11:20:34.801Z,1020.34
2022-12-27T11:21:36.194Z,1020.39
2022-12-27T11:22:34.763Z,1020.37
2022-12-27T11:23:34.760Z,1020.37
2022-12-27T11:24:34.756Z,1020.40
2022-12-27T11:25:34.754Z,1020.35
2022-12-27T11:26:34.718Z,1020.37
2022-12-27T11:27:34.727Z,1020.37
2022-12-27T11:28:34.743Z,1020.38
2022-12-27T11:29:34.704Z,1020.35
2022-12-27T11:30:34.715Z,1020.39
2022-12-27T11:31:34.721Z,1020.33
2022-12-27T11:32:34.654Z,1020.39
2022-12-27T11:33:34.659Z,1020.32
2022-12-27T11:34:34.643Z,1020.36
2022-12-27T11:35:34.638Z,1020.32
2022-12-27T11:36:34.618Z,1020.39
2022-12-27T11:37:34.615Z,1020.35
2022-12-27T11:38:34.581Z,1020.37
2022-12-27T11:39:34.577Z,1020.37
2022-12-27T11:40:34.698Z,1020.37
2022-12-27T11:41:34.583Z,1020.36
2022-12-27T11:42:34.557Z,1020.32
2022-12-27T11:43:34.546Z,1020.38
2022-12-27T11:44:34.539Z,1020.34
2022-12-27T11:45:34.521Z,1020.35
2022-12-27T11:46:34.608Z,1020.38
2022-12-27T11:47:34.499Z,1020.38
2022-12-27T11:48:34.472Z,1020.40
2022-12-27T11:49:34.476Z,1020.36
2022-12-27T11:50:34.461Z,1020.42
2022-12-27T11:51:34.466Z,1020.40
2022-12-27T11:52:34.426Z,1020.42
2022-12-27T11:53:34.436Z,1020.37
2022-12-27T11:54:34.428Z,1020.45
2022-12-27T11:55:34.400Z,1020.42
2022-12-27T11:56:34.404Z,1020.48
2022-12-27T11:57:34.375Z,1020.46
2022-12-27T11:58:34.385Z,1020.49
2022-12-27T11:59:34.356Z,1020.45
2022-12-27T12:00:35.097Z,1020.44
2022-12-27T12:01:34.369Z,1020.46
2022-12-27T12:02:34.382Z,1020.42
2022-12-27T12:03:34.459Z,1020.42
2022-12-27T12:04:34.292Z,1020.44
2022-12-27T12:05:34.290Z,1020.39
2022-12-27T12:06:34.820Z,1020.38
2022-12-27T12:07:34.295Z,1020.35
2022-12-27T12:08:34.261Z,1020.31
2022-12-27T12:09:34.255Z,1020.32
2022-12-27T12:10:34.239Z,1020.32
2022-12-27T12:11:34.234Z,1020.31
2022-12-27T12:12:34.217Z,1020.34
2022-12-27T12:13:34.238Z,1020.34
2022-12-27T12:14:34.193Z,1020.26
2022-12-27T12:15:34.287Z,1020.28
2022-12-27T12:16:34.236Z,1020.27
2022-12-27T12:17:36.282Z,1020.24
2022-12-27T12:18:34.164Z,1020.20
2022-12-27T12:19:34.141Z,1020.22
2022-12-27T12:20:34.124Z,1020.24
2022-12-27T12:21:34.117Z,1020.22
2022-12-27T12:22:34.089Z,1020.18
2022-12-27T12:23:34.091Z,1020.12
2022-12-27T12:24:34.097Z,1020.13
2022-12-27T12:25:34.065Z,1020.13
2022-12-27T12:26:34.078Z,1020.14
2022-12-27T12:27:34.058Z,1020.07
2022-12-27T12:28:59.369Z,1020.05
2022-12-27T12:29:35.032Z,1020.04
2022-12-27T12:30:34.022Z,1020.03
2022-12-27T12:31:34.045Z,1020.04
2022-12-27T12:32:33.985Z,1020.08
2022-12-27T12:33:33.970Z,1020.06
2022-12-27T12:34:33.978Z,1020.05
2022-12-27T12:35:33.963Z,1020.02
2022-12-27T12:36:33.950Z,1019.98
2022-12-27T12:37:33.938Z,1020.00
2022-12-27T12:38:33.917Z,1019.91
2022-12-27T12:39:33.916Z,1019.92
2022-12-27T12:40:33.905Z,1019.94
2022-12-27T12:41:33.879Z,1019.94
2022-12-27T12:42:34.879Z,1019.96
2022-12-27T12:43:33.868Z,1019.95
2022-12-27T12:44:39.580Z,1019.97
2022-12-27T12:45:34.911Z,1020.03
2022-12-27T12:46:33.823Z,1019.98
2022-12-27T12:47:33.817Z,1019.95
2022-12-27T12:48:33.797Z,1019.94
2022-12-27T12:49:33.803Z,1019.95
2022-12-27T12:50:33.801Z,1019.97
2022-12-27T12:51:33.787Z,1019.94
2022-12-27T12:52:33.759Z,1019.87
2022-12-27T12:53:33.753Z,1019.90
2022-12-27T12:54:33.733Z,1019.86
2022-12-27T12:55:38.543Z,1019.81
2022-12-27T12:56:34.721Z,1019.85
2022-12-27T12:57:33.712Z,1019.84
2022-12-27T12:58:33.700Z,1019.81
2022-12-27T12:59:33.678Z,1019.79
2022-12-27T13:00:33.679Z,1019.77
2022-12-27T13:01:33.840Z,1019.75
2022-12-27T13:02:33.790Z,1019.77
2022-12-27T13:03:33.679Z,1019.77
2022-12-27T13:04:33.637Z,1019.77
2022-12-27T13:05:33.633Z,1019.78
2022-12-27T13:06:33.664Z,1019.76
2022-12-27T13:07:39.330Z,1019.73
2022-12-27T13:08:34.571Z,1019.68
2022-12-27T13:09:33.565Z,1019.67
2022-12-27T13:10:33.586Z,1019.67
2022-12-27T13:11:33.559Z,1019.64
2022-12-27T13:12:33.565Z,1019.68
2022-12-27T13:13:34.519Z,1019.72
2022-12-27T13:14:33.514Z,1019.68
2022-12-27T13:15:33.498Z,1019.67
2022-12-27T13:16:33.554Z,1019.62
2022-12-27T13:17:33.495Z,1019.60
2022-12-27T13:18:33.477Z,1019.61
2022-12-27T13:19:33.465Z,1019.57
2022-12-27T13:20:33.451Z,1019.64
2022-12-27T13:21:33.446Z,1019.56
2022-12-27T13:22:33.476Z,1019.60
2022-12-27T13:23:33.405Z,1019.60
2022-12-27T13:24:33.391Z,1019.60
2022-12-27T13:25:33.428Z,1019.59
2022-12-27T13:26:33.372Z,1019.58
2022-12-27T13:27:33.376Z,1019.58
2022-12-27T13:28:34.369Z,1019.51
2022-12-27T13:29:33.339Z,1019.56
2022-12-27T13:30:33.380Z,1019.55
2022-12-27T13:31:33.334Z,1019.49
2022-12-27T13:32:33.326Z,1019.51
2022-12-27T13:33:33.297Z,1019.51
2022-12-27T13:34:33.296Z,1019.47
2022-12-27T13:35:33.272Z,1019.44
2022-12-27T13:36:33.260Z,1019.42
2022-12-27T13:37:33.249Z,1019.43
2022-12-27T13:38:33.291Z,1019.39
2022-12-27T13:39:33.261Z,1019.37
2022-12-27T13:40:33.210Z,1019.35
2022-12-27T13:41:33.220Z,1019.39
2022-12-27T13:42:33.207Z,1019.37
2022-12-27T13:43:33.230Z,1019.39
2022-12-27T13:44:33.171Z,1019.38
2022-12-27T13:45:33.170Z,1019.42
2022-12-27T13:46:38.149Z,1019.33
2022-12-27T13:47:34.183Z,1019.36
2022-12-27T13:48:33.125Z,1019.31
2022-12-27T13:49:33.130Z,1019.33
2022-12-27T13:50:33.126Z,1019.30
2022-12-27T13:51:33.107Z,1019.32
2022-12-27T13:52:33.079Z,1019.30
2022-12-27T13:53:33.084Z,1019.25
2022-12-27T13:54:33.093Z,1019.25
2022-12-27T13:55:33.055Z,1019.28
2022-12-27T13:57:34.021Z,1019.30
2022-12-27T13:58:34.051Z,1019.31
2022-12-27T13:59:33.016Z,1019.22
2022-12-27T14:00:33.002Z,1019.27
2022-12-27T14:01:33.095Z,1019.21
2022-12-27T14:02:33.257Z,1019.17
2022-12-27T14:03:33.084Z,1019.18
2022-12-27T14:04:32.956Z,1019.14
2022-12-27T14:05:32.936Z,1019.10
2022-12-27T14:06:32.919Z,1019.15
2022-12-27T14:07:32.928Z,1019.11
2022-12-27T14:08:32.902Z,1019.17
2022-12-27T14:09:32.903Z,1019.17
2022-12-27T14:10:32.907Z,1019.16
2022-12-27T14:11:32.866Z,1019.25
2022-12-27T14:12:32.849Z,1019.20
2022-12-27T14:13:32.844Z,1019.14
2022-12-27T14:14:32.845Z,1019.17
2022-12-27T14:15:32.878Z,1019.15
2022-12-27T14:16:32.825Z,1019.18
2022-12-27T14:17:32.805Z,1019.22
2022-12-27T14:18:32.799Z,1019.18
2022-12-27T14:19:32.803Z,1019.20
2022-12-27T14:20:32.763Z,1019.16
2022-12-27T14:21:32.764Z,1019.15
2022-12-27T14:22:32.757Z,1019.19
2022-12-27T14:23:32.732Z,1019.17
2022-12-27T14:24:32.748Z,1019.15
2022-12-27T14:25:32.709Z,1019.12
2022-12-27T14:26:32.732Z,1019.16
2022-12-27T14:27:32.686Z,1019.13
2022-12-27T14:28:32.691Z,1019.11
2022-12-27T14:29:32.681Z,1019.10
2022-12-27T14:30:32.673Z,1019.11
2022-12-27T14:31:32.643Z,1019.09
2022-12-27T14:32:32.640Z,1019.07
2022-12-27T14:33:32.647Z,1019.08
2022-12-27T14:34:32.619Z,1019.11
2022-12-27T14:35:32.610Z,1019.09
2022-12-27T14:36:32.595Z,1019.14
2022-12-27T14:37:32.575Z,1019.10
2022-12-27T14:38:32.562Z,1019.10
2022-12-27T14:39:32.552Z,1019.09
2022-12-27T14:40:34.894Z,1019.13
2022-12-27T14:41:32.546Z,1019.11
2022-12-27T14:42:32.549Z,1019.13
2022-12-27T14:43:32.506Z,1019.12
2022-12-27T14:44:32.505Z,1019.09
2022-12-27T14:45:32.500Z,1019.18
2022-12-27T14:46:32.517Z,1019.07
2022-12-27T14:47:32.493Z,1019.12
2022-12-27T14:48:32.470Z,1019.14
2022-12-27T14:49:32.456Z,1019.13
2022-12-27T14:50:32.443Z,1019.07
2022-12-27T14:51:59.481Z,1019.10
2022-12-27T14:52:33.436Z,1019.09
2022-12-27T14:53:32.408Z,1019.12
2022-12-27T14:54:32.379Z,1019.22
2022-12-27T14:55:32.386Z,1019.17
2022-12-27T14:56:32.357Z,1019.18
2022-12-27T14:57:33.999Z,1019.11
2022-12-27T14:58:32.375Z,1019.17
2022-12-27T14:59:32.340Z,1019.12
2022-12-27T15:00:32.324Z,1019.20
2022-12-27T15:01:32.402Z,1019.09
2022-12-27T15:02:32.527Z,1019.09
2022-12-27T15:03:39.456Z,1019.13
2022-12-27T15:04:33.276Z,1019.07
2022-12-27T15:05:32.325Z,1019.14
2022-12-27T15:06:32.257Z,1019.18
2022-12-27T15:07:32.304Z,1019.16
2022-12-27T15:08:33.218Z,1019.29
2022-12-27T15:09:32.248Z,1019.15
2022-12-27T15:10:33.818Z,1019.16
2022-12-27T15:11:32.209Z,1019.08
2022-12-27T15:12:32.182Z,1019.12
2022-12-27T15:13:32.195Z,1019.13
2022-12-27T15:14:32.202Z,1019.11
2022-12-27T15:15:32.163Z,1019.17
2022-12-27T15:16:32.167Z,1019.14
2022-12-27T15:17:32.140Z,1019.16
2022-12-27T15:18:34.900Z,1019.19
2022-12-27T15:19:32.101Z,1019.17
2022-12-27T15:20:32.100Z,1019.09
2022-12-27T15:21:35.788Z,1019.14
2022-12-27T15:22:33.062Z,1019.12
2022-12-27T15:23:32.076Z,1019.07
2022-12-27T15:24:32.065Z,1019.11
2022-12-27T15:25:32.039Z,1019.15
2022-12-27T15:26:32.037Z,1019.11
2022-12-27T15:27:32.015Z,1019.15
2022-12-27T15:28:32.029Z,1019.19
2022-12-27T15:29:32.001Z,1019.17
2022-12-27T15:30:32.005Z,1019.14
2022-12-27T15:31:32.007Z,1019.17
2022-12-27T15:32:31.966Z,1019.11
2022-12-27T15:33:31.943Z,1019.14
2022-12-27T15:34:31.958Z,1019.08
2022-12-27T15:35:31.929Z,1019.08
2022-12-27T15:36:31.909Z,1019.20
2022-12-27T15:37:31.890Z,1019.11
2022-12-27T15:38:31.896Z,1019.00
2022-12-27T15:39:31.885Z,1018.94
2022-12-27T15:40:31.878Z,1018.99
2022-12-27T15:41:31.874Z,1018.89
2022-12-27T15:42:37.798Z,1018.90
2022-12-27T15:43:32.856Z,1018.97
2022-12-27T15:44:31.840Z,1018.93
2022-12-27T15:45:31.815Z,1018.98
2022-12-27T15:46:36.120Z,1018.94
2022-12-27T15:47:31.807Z,1018.87
2022-12-27T15:48:31.774Z,1018.94
2022-12-27T15:49:31.819Z,1018.81
2022-12-27T15:50:31.767Z,1018.84
2022-12-27T15:51:31.745Z,1018.91
2022-12-27T15:52:31.743Z,1018.88
2022-12-27T15:53:31.719Z,1018.88
2022-12-27T15:54:31.741Z,1018.88
2022-12-27T15:55:38.176Z,1018.85
2022-12-27T15:56:31.686Z,1018.86
2022-12-27T15:57:31.683Z,1018.84
2022-12-27T15:58:31.666Z,1018.91
2022-12-27T15:59:31.646Z,1018.90
2022-12-27T16:00:34.340Z,1018.95
2022-12-27T16:01:31.800Z,1018.90
2022-12-27T16:02:31.965Z,1018.91
2022-12-27T16:03:31.660Z,1018.90
2022-12-27T16:04:31.607Z,1018.86
2022-12-27T16:05:31.620Z,1018.85
2022-12-27T16:06:31.585Z,1018.88
2022-12-27T16:07:31.567Z,1018.82
2022-12-27T16:08:31.565Z,1018.84
2022-12-27T16:09:31.534Z,1018.83
2022-12-27T16:10:31.535Z,1018.91
2022-12-27T16:11:31.534Z,1018.79
2022-12-27T16:12:31.516Z,1018.80
2022-12-27T16:13:34.453Z,1018.85
2022-12-27T16:14:32.503Z,1018.92
2022-12-27T16:15:31.480Z,1018.85
2022-12-27T16:16:31.557Z,1018.94
2022-12-27T16:17:31.472Z,1018.93
2022-12-27T16:18:31.475Z,1019.00
2022-12-27T16:19:36.872Z,1018.86
2022-12-27T16:20:32.428Z,1018.86
2022-12-27T16:21:31.430Z,1018.94
2022-12-27T16:22:31.398Z,1018.94
2022-12-27T16:23:31.387Z,1018.96
2022-12-27T16:24:31.381Z,1018.94
2022-12-27T16:25:31.829Z,1019.01
2022-12-27T16:26:31.363Z,1018.92
2022-12-27T16:27:31.359Z,1018.93
2022-12-27T16:28:31.325Z,1018.91
2022-12-27T16:29:31.321Z,1018.90
2022-12-27T16:30:31.313Z,1018.90
2022-12-27T16:31:31.369Z,1018.91
2022-12-27T16:32:31.296Z,1018.86
2022-12-27T16:33:31.264Z,1018.89
2022-12-27T16:34:31.295Z,1018.96
2022-12-27T16:35:31.253Z,1018.99
2022-12-27T16:36:31.243Z,1018.92
2022-12-27T16:37:31.220Z,1018.87
2022-12-27T16:38:31.223Z,1018.84
2022-12-27T16:39:31.209Z,1018.86
2022-12-27T16:40:31.202Z,1018.85
2022-12-27T16:41:31.211Z,1018.90
2022-12-27T16:42:31.165Z,1018.88
2022-12-27T16:43:31.156Z,1018.87
2022-12-27T16:44:37.858Z,1018.83
2022-12-27T16:45:32.138Z,1018.79
2022-12-27T16:46:31.239Z,1018.80
2022-12-27T16:47:31.222Z,1018.79
2022-12-27T16:48:31.144Z,1018.76
2022-12-27T16:49:31.187Z,1018.78
2022-12-27T16:50:33.590Z,1018.70
2022-12-27T16:51:32.069Z,1018.79
2022-12-27T16:52:31.078Z,1018.73
2022-12-27T16:53:31.036Z,1018.74
2022-12-27T16:54:31.049Z,1018.65
2022-12-27T16:55:31.029Z,1018.75
2022-12-27T16:56:31.007Z,1018.79
2022-12-27T16:57:31.007Z,1018.87
2022-12-27T16:58:31.004Z,1018.85
2022-12-27T16:59:30.979Z,1018.87
2022-12-27T17:00:31.092Z,1018.87
2022-12-27T17:01:31.054Z,1018.92
2022-12-27T17:02:32.128Z,1018.92
2022-12-27T17:03:30.938Z,1018.95
2022-12-27T17:04:30.932Z,1018.97
2022-12-27T17:05:30.903Z,1018.98
2022-12-27T17:06:33.696Z,1018.95
2022-12-27T17:07:30.896Z,1018.94
2022-12-27T17:08:30.908Z,1018.88
2022-12-27T17:09:33.933Z,1018.88
2022-12-27T17:10:30.873Z,1018.87
2022-12-27T17:11:30.839Z,1018.87
2022-12-27T17:12:30.848Z,1018.88
2022-12-27T17:13:30.864Z,1018.84
2022-12-27T17:14:30.806Z,1018.88
2022-12-27T17:15:30.810Z,1018.83
2022-12-27T17:16:38.419Z,1018.88
2022-12-27T17:17:30.780Z,1018.87
2022-12-27T17:18:30.783Z,1018.84
2022-12-27T17:19:30.782Z,1018.89
2022-12-27T17:20:30.746Z,1018.91
2022-12-27T17:21:30.944Z,1018.86
2022-12-27T17:22:35.017Z,1018.88
2022-12-27T17:23:30.702Z,1018.86
2022-12-27T17:24:31.711Z,1018.93
2022-12-27T17:25:30.677Z,1018.92
2022-12-27T17:26:30.687Z,1018.89
2022-12-27T17:27:30.660Z,1018.89
2022-12-27T17:28:30.657Z,1018.94
2022-12-27T17:29:30.668Z,1018.87
2022-12-27T17:30:30.627Z,1018.84
2022-12-27T17:31:30.716Z,1018.77
2022-12-27T17:32:30.604Z,1018.79
2022-12-27T17:33:30.592Z,1018.76
2022-12-27T17:34:30.602Z,1018.73
2022-12-27T17:35:30.585Z,1018.74
2022-12-27T17:36:31.576Z,1018.75
2022-12-27T17:37:30.558Z,1018.75
2022-12-27T17:38:30.578Z,1018.75
2022-12-27T17:39:30.547Z,1018.81
2022-12-27T17:40:30.540Z,1018.76
2022-12-27T17:41:30.499Z,1018.77
2022-12-27T17:42:30.492Z,1018.84
2022-12-27T17:43:30.501Z,1018.80
2022-12-27T17:44:30.499Z,1018.79
2022-12-27T17:45:30.500Z,1018.74
2022-12-27T17:46:30.465Z,1018.76
2022-12-27T17:47:30.447Z,1018.74
2022-12-27T17:48:30.443Z,1018.78
2022-12-27T17:49:30.414Z,1018.78
2022-12-27T17:50:30.425Z,1018.73
2022-12-27T17:51:30.400Z,1018.76
2022-12-27T17:52:30.379Z,1018.72
2022-12-27T17:53:30.382Z,1018.80
2022-12-27T17:54:30.393Z,1018.72
2022-12-27T17:55:30.433Z,1018.73
2022-12-27T17:56:30.356Z,1018.70
2022-12-27T17:57:30.322Z,1018.71
2022-12-27T17:58:30.328Z,1018.76
2022-12-27T17:59:30.305Z,1018.68
2022-12-27T18:00:30.314Z,1018.76
2022-12-27T18:01:30.475Z,1018.66
2022-12-27T18:02:30.409Z,1018.67
2022-12-27T18:03:30.286Z,1018.61
2022-12-27T18:04:30.251Z,1018.68
2022-12-27T18:05:30.252Z,1018.61
2022-12-27T18:06:30.261Z,1018.58
2022-12-27T18:07:30.208Z,1018.65
2022-12-27T18:08:31.222Z,1018.62
2022-12-27T18:09:30.200Z,1018.63
2022-12-27T18:10:30.221Z,1018.57
2022-12-27T18:11:31.185Z,1018.60
2022-12-27T18:12:30.156Z,1018.61
2022-12-27T18:13:30.150Z,1018.63
2022-12-27T18:14:30.144Z,1018.63
2022-12-27T18:15:30.139Z,1018.59
2022-12-27T18:16:31.198Z,1018.60
2022-12-27T18:18:08.825Z,1018.58
2022-12-27T18:18:30.105Z,1018.56
2022-12-27T18:19:30.088Z,1018.60
2022-12-27T18:20:30.070Z,1018.56
2022-12-27T18:21:30.069Z,1018.58
2022-12-27T18:22:30.047Z,1018.59
2022-12-27T18:23:30.062Z,1018.52
2022-12-27T18:24:30.022Z,1018.50
2022-12-27T18:25:30.016Z,1018.50
2022-12-27T18:26:30.047Z,1018.52
2022-12-27T18:27:30.024Z,1018.52
2022-12-27T18:28:33.526Z,1018.53
2022-12-27T18:29:29.973Z,1018.50
2022-12-27T18:30:29.963Z,1018.47
2022-12-27T18:31:30.000Z,1018.46
2022-12-27T18:32:29.951Z,1018.48
2022-12-27T18:33:29.950Z,1018.43
2022-12-27T18:34:29.923Z,1018.42
2022-12-27T18:35:29.910Z,1018.40
2022-12-27T18:36:29.888Z,1018.37
2022-12-27T18:37:29.884Z,1018.32
2022-12-27T18:38:29.873Z,1018.29
2022-12-27T18:39:29.880Z,1018.24
2022-12-27T18:40:29.857Z,1018.25
2022-12-27T18:41:29.841Z,1018.24
2022-12-27T18:42:29.846Z,1018.24
2022-12-27T18:43:30.804Z,1018.25
2022-12-27T18:44:29.827Z,1018.26
2022-12-27T18:45:29.857Z,1018.23
2022-12-27T18:46:29.797Z,1018.20
2022-12-27T18:47:29.759Z,1018.16
2022-12-27T18:48:29.758Z,1018.16
2022-12-27T18:49:29.787Z,1018.11
2022-12-27T18:50:29.767Z,1018.11
2022-12-27T18:51:29.727Z,1018.12
2022-12-27T18:52:29.732Z,1018.13
2022-12-27T18:53:29.695Z,1018.12
2022-12-27T18:54:29.734Z,1018.15
2022-12-27T18:55:29.687Z,1018.12
2022-12-27T18:56:29.682Z,1018.14
2022-12-27T18:57:29.648Z,1018.14
2022-12-27T18:58:29.676Z,1018.11
2022-12-27T18:59:30.637Z,1018.09
2022-12-27T19:00:29.648Z,1018.11
2022-12-27T19:01:29.659Z,1018.08
2022-12-27T19:02:29.686Z,1018.02
2022-12-27T19:03:30.999Z,1018.00
2022-12-27T19:04:29.583Z,1018.00
2022-12-27T19:05:29.583Z,1017.98
2022-12-27T19:06:30.563Z,1017.95
2022-12-27T19:07:29.533Z,1017.93
2022-12-27T19:08:29.530Z,1017.89
2022-12-27T19:09:29.519Z,1017.88
2022-12-27T19:10:29.518Z,1017.89
2022-12-27T19:11:36.064Z,1017.84
2022-12-27T19:12:30.496Z,1017.88
2022-12-27T19:13:29.487Z,1017.92
2022-12-27T19:14:29.502Z,1017.92
2022-12-27T19:15:29.549Z,1017.96
2022-12-27T19:16:29.540Z,1017.98
2022-12-27T19:17:29.428Z,1017.93
2022-12-27T19:18:30.426Z,1017.91
2022-12-27T19:19:29.401Z,1017.88
2022-12-27T19:20:29.430Z,1017.84
2022-12-27T19:21:29.393Z,1017.83
2022-12-27T19:22:29.391Z,1017.80
2022-12-27T19:23:29.383Z,1017.80
2022-12-27T19:24:29.387Z,1017.79
2022-12-27T19:25:29.555Z,1017.80
2022-12-27T19:26:29.335Z,1017.75
2022-12-27T19:27:29.347Z,1017.69
2022-12-27T19:28:29.310Z,1017.67
2022-12-27T19:29:29.290Z,1017.62
2022-12-27T19:30:29.325Z,1017.62
2022-12-27T19:31:29.321Z,1017.61
2022-12-27T19:32:29.282Z,1017.62
2022-12-27T19:33:29.259Z,1017.63
2022-12-27T19:34:29.251Z,1017.63
2022-12-27T19:35:29.225Z,1017.60
2022-12-27T19:36:29.294Z,1017.59
2022-12-27T19:37:29.212Z,1017.56
2022-12-27T19:38:29.211Z,1017.56
2022-12-27T19:39:29.196Z,1017.47
2022-12-27T19:40:29.174Z,1017.44
2022-12-27T19:41:29.185Z,1017.41
2022-12-27T19:42:29.171Z,1017.40
2022-12-27T19:43:29.134Z,1017.37
2022-12-27T19:44:29.156Z,1017.41
2022-12-27T19:45:29.127Z,1017.45
2022-12-27T19:46:31.370Z,1017.43
2022-12-27T19:47:29.102Z,1017.47
2022-12-27T19:48:29.095Z,1017.45
2022-12-27T19:49:41.839Z,1017.40
2022-12-27T19:50:30.067Z,1017.40
2022-12-27T19:51:29.080Z,1017.40
2022-12-27T19:52:29.028Z,1017.38
2022-12-27T19:53:29.027Z,1017.39
2022-12-27T19:54:29.023Z,1017.38
2022-12-27T19:55:29.015Z,1017.35
2022-12-27T19:56:29.016Z,1017.30
2022-12-27T19:57:29.027Z,1017.31
2022-12-27T19:58:28.967Z,1017.34
2022-12-27T19:59:28.975Z,1017.30
2022-12-27T20:00:28.956Z,1017.29
2022-12-27T20:01:29.053Z,1017.28
2022-12-27T20:02:29.047Z,1017.25
2022-12-27T20:03:29.046Z,1017.24
2022-12-27T20:04:28.909Z,1017.22
2022-12-27T20:06:12.368Z,1017.23
2022-12-27T20:06:29.903Z,1017.22
2022-12-27T20:07:28.884Z,1017.20
2022-12-27T20:08:28.854Z,1017.23
2022-12-27T20:09:28.883Z,1017.19